ΕΜΥ, Εθνική Μετεωρολογική Υπηρεσία - Δελτία Καιρού, Προγνώσεις

ΑΕΡΟΝΑΥΤΙΛΙΑ

GREEK AIRPORTS CODES

LGAL 271020Z 20014KT 9999 FEW012 SCT020 23/19 Q1006=

EUROPEAN AIRPORTS CODES

LFPO 271036Z 25012KT 6000 -SHRA SCT014 SCT040TCU 12/10 Q1005TEMPO 25015G25KT 4000 SHRA SCT025TCU=